createdAt,value
2022-08-17T00:00:43.158Z,20.10
2022-08-17T00:03:09.967Z,20.10
2022-08-17T00:05:41.956Z,20.20
2022-08-17T00:08:11.700Z,20.20
2022-08-17T00:10:40.735Z,20.10
2022-08-17T00:13:10.530Z,20.10
2022-08-17T00:15:38.634Z,20.10
2022-08-17T00:19:02.109Z,20.00
2022-08-17T00:20:55.705Z,20.00
2022-08-17T00:23:25.514Z,19.90
2022-08-17T00:25:54.541Z,19.80
2022-08-17T00:28:23.147Z,19.90
2022-08-17T00:30:53.397Z,20.00
2022-08-17T00:33:23.871Z,20.00
2022-08-17T00:35:52.915Z,19.90
2022-08-17T00:38:21.409Z,19.80
2022-08-17T00:40:55.834Z,19.70
2022-08-17T00:43:31.295Z,19.60
2022-08-17T00:46:00.755Z,19.50
2022-08-17T00:48:30.798Z,19.50
2022-08-17T00:51:04.058Z,19.50
2022-08-17T00:53:34.703Z,19.50
2022-08-17T00:56:07.877Z,19.50
2022-08-17T00:58:37.367Z,19.50
2022-08-17T01:01:07.673Z,19.40
2022-08-17T01:03:37.222Z,19.30
2022-08-17T01:06:07.191Z,19.30
2022-08-17T01:08:36.863Z,19.30
2022-08-17T01:11:07.089Z,19.30
2022-08-17T01:13:41.130Z,19.20
2022-08-17T01:16:15.959Z,19.20
2022-08-17T01:18:45.638Z,19.20
2022-08-17T01:21:20.690Z,19.20
2022-08-17T01:23:50.493Z,19.20
2022-08-17T01:26:20.086Z,19.10
2022-08-17T01:28:54.829Z,19.10
2022-08-17T01:31:26.066Z,19.20
2022-08-17T01:33:54.530Z,19.10
2022-08-17T01:36:22.719Z,19.10
2022-08-17T01:38:52.365Z,19.00
2022-08-17T01:41:23.676Z,18.90
2022-08-17T01:43:56.138Z,18.90
2022-08-17T01:46:27.212Z,18.90
2022-08-17T01:48:56.480Z,18.80
2022-08-17T01:51:25.935Z,18.80
2022-08-17T01:53:59.402Z,18.90
2022-08-17T01:56:28.867Z,18.90
2022-08-17T01:58:57.777Z,18.90
2022-08-17T02:01:29.216Z,18.90
2022-08-17T02:04:00.955Z,18.90
2022-08-17T02:06:30.677Z,18.90
2022-08-17T02:09:03.865Z,18.90
2022-08-17T02:11:34.256Z,18.80
2022-08-17T02:14:04.133Z,18.80
2022-08-17T02:16:37.502Z,18.80
2022-08-17T02:19:08.247Z,18.80
2022-08-17T02:21:37.042Z,18.70
2022-08-17T02:24:09.527Z,18.60
2022-08-17T02:26:37.512Z,18.60
2022-08-17T02:29:05.494Z,18.60
2022-08-17T02:31:33.445Z,18.60
2022-08-17T02:34:04.619Z,18.60
2022-08-17T02:36:34.788Z,18.50
2022-08-17T02:39:03.019Z,18.50
2022-08-17T02:41:32.500Z,18.50
2022-08-17T02:44:00.458Z,18.50
2022-08-17T02:46:28.532Z,18.40
2022-08-17T02:48:56.782Z,18.40
2022-08-17T02:51:24.868Z,18.40
2022-08-17T02:53:52.982Z,18.30
2022-08-17T02:56:42.314Z,18.30
2022-08-17T02:59:10.292Z,18.30
2022-08-17T03:01:38.320Z,18.30
2022-08-17T03:04:06.334Z,18.20
2022-08-17T03:06:34.394Z,18.20
2022-08-17T03:09:02.329Z,18.20
2022-08-17T03:11:30.428Z,18.20
2022-08-17T03:13:59.697Z,18.10
2022-08-17T03:16:27.870Z,18.10
2022-08-17T03:18:55.893Z,18.10
2022-08-17T03:21:23.860Z,18.10
2022-08-17T03:23:54.482Z,18.10
2022-08-17T03:26:22.883Z,18.00
2022-08-17T03:28:50.951Z,18.00
2022-08-17T03:31:21.480Z,18.00
2022-08-17T03:33:49.738Z,18.00
2022-08-17T03:36:17.691Z,18.10
2022-08-17T03:38:45.705Z,18.10
2022-08-17T03:41:14.584Z,18.00
2022-08-17T03:43:42.564Z,18.10
2022-08-17T03:46:35.215Z,18.10
2022-08-17T03:49:25.197Z,18.10
2022-08-17T03:52:11.421Z,18.10
2022-08-17T03:54:57.628Z,18.20
2022-08-17T03:57:26.162Z,18.10
2022-08-17T03:59:54.382Z,18.10
2022-08-17T04:02:25.228Z,18.10
2022-08-17T04:04:54.727Z,18.10
2022-08-17T04:07:24.590Z,18.20
2022-08-17T04:09:52.775Z,18.20
2022-08-17T04:12:23.590Z,18.20
2022-08-17T04:14:54.741Z,18.20
2022-08-17T04:17:26.017Z,18.20
2022-08-17T04:19:56.267Z,18.20
2022-08-17T04:22:33.099Z,18.20
2022-08-17T04:25:10.397Z,18.20
2022-08-17T04:27:38.312Z,18.20
2022-08-17T04:30:08.174Z,18.20
2022-08-17T04:33:04.553Z,18.20
2022-08-17T04:35:39.153Z,18.20
2022-08-17T04:38:07.950Z,18.10
2022-08-17T04:40:54.212Z,18.20
2022-08-17T04:43:24.167Z,18.20
2022-08-17T04:45:55.935Z,18.10
2022-08-17T04:48:29.954Z,18.10
2022-08-17T04:51:07.931Z,18.10
2022-08-17T04:53:35.948Z,18.30
2022-08-17T04:56:04.882Z,18.30
2022-08-17T04:58:33.186Z,18.30
2022-08-17T05:01:01.500Z,18.30
2022-08-17T05:03:29.726Z,18.30
2022-08-17T05:05:57.770Z,18.40
2022-08-17T05:08:27.022Z,18.40
2022-08-17T05:10:55.242Z,18.50
2022-08-17T05:13:25.395Z,18.40
2022-08-17T05:15:57.331Z,18.50
2022-08-17T05:18:26.238Z,18.60
2022-08-17T05:20:55.211Z,18.70
2022-08-17T05:23:26.758Z,18.60
2022-08-17T05:25:59.336Z,18.60
2022-08-17T05:28:28.442Z,18.70
2022-08-17T05:31:00.225Z,18.80
2022-08-17T05:33:30.540Z,18.90
2022-08-17T05:36:00.369Z,18.90
2022-08-17T05:38:31.330Z,19.00
2022-08-17T05:41:01.330Z,19.00
2022-08-17T05:43:31.267Z,19.10
2022-08-17T05:46:07.307Z,19.20
2022-08-17T05:48:40.464Z,19.40
2022-08-17T05:51:31.685Z,19.50
2022-08-17T05:54:10.759Z,19.40
2022-08-17T05:56:55.107Z,19.30
2022-08-17T05:59:30.533Z,19.30
2022-08-17T06:02:09.838Z,19.40
2022-08-17T06:04:50.853Z,19.60
2022-08-17T06:07:26.397Z,19.80
2022-08-17T06:10:04.167Z,20.10
2022-08-17T06:12:48.629Z,20.30
2022-08-17T06:15:28.518Z,20.70
2022-08-17T06:17:59.821Z,20.80
2022-08-17T06:20:36.630Z,21.00
2022-08-17T06:23:08.670Z,21.10
2022-08-17T06:25:53.221Z,21.10
2022-08-17T06:28:28.562Z,21.20
2022-08-17T06:31:13.010Z,21.20
2022-08-17T06:33:46.013Z,21.20
2022-08-17T06:36:28.692Z,21.10
2022-08-17T06:39:04.429Z,21.20
2022-08-17T06:41:42.901Z,21.40
2022-08-17T06:44:49.933Z,21.60
2022-08-17T06:47:13.458Z,21.70
2022-08-17T06:49:50.712Z,21.70
2022-08-17T06:52:45.711Z,21.70
2022-08-17T06:55:20.151Z,21.80
2022-08-17T06:57:52.234Z,21.90
2022-08-17T07:00:23.961Z,21.80
2022-08-17T07:02:58.813Z,21.80
2022-08-17T07:05:32.424Z,21.90
2022-08-17T07:08:05.810Z,21.90
2022-08-17T07:10:40.162Z,22.10
2022-08-17T07:13:30.571Z,22.20
2022-08-17T07:16:20.346Z,22.10
2022-08-17T07:18:51.678Z,22.20
2022-08-17T07:21:30.594Z,22.30
2022-08-17T07:24:29.372Z,22.30
2022-08-17T07:27:11.690Z,22.10
2022-08-17T07:29:45.104Z,22.00
2022-08-17T07:32:18.497Z,22.00
2022-08-17T07:35:21.065Z,22.10
2022-08-17T07:37:53.205Z,22.30
2022-08-17T07:40:28.942Z,22.60
2022-08-17T07:43:06.008Z,22.90
2022-08-17T07:45:53.298Z,23.10
2022-08-17T07:48:25.047Z,23.00
2022-08-17T07:50:54.433Z,22.90
2022-08-17T07:53:25.681Z,22.90
2022-08-17T07:55:54.714Z,23.10
2022-08-17T07:58:24.616Z,23.40
2022-08-17T08:01:07.314Z,23.70
2022-08-17T08:03:42.454Z,23.80
2022-08-17T08:06:22.200Z,23.80
2022-08-17T08:08:53.649Z,24.10
2022-08-17T08:11:32.494Z,24.20
2022-08-17T08:14:22.555Z,24.40
2022-08-17T08:17:00.113Z,24.70
2022-08-17T08:19:29.473Z,25.10
2022-08-17T08:22:06.876Z,25.40
2022-08-17T08:24:52.862Z,25.70
2022-08-17T08:27:31.788Z,25.80
2022-08-17T08:30:07.321Z,25.70
2022-08-17T08:32:50.222Z,25.40
2022-08-17T08:35:30.772Z,25.50
2022-08-17T08:38:09.254Z,25.30
2022-08-17T08:40:52.252Z,25.30
2022-08-17T08:43:31.015Z,25.30
2022-08-17T08:46:05.668Z,25.40
2022-08-17T08:49:06.497Z,25.60
2022-08-17T08:51:52.843Z,25.90
2022-08-17T08:54:33.598Z,26.00
2022-08-17T08:57:27.813Z,26.10
2022-08-17T09:00:15.368Z,26.00
2022-08-17T09:03:07.355Z,26.00
2022-08-17T09:05:52.744Z,26.00
2022-08-17T09:08:28.578Z,26.10
2022-08-17T09:11:02.997Z,26.10
2022-08-17T09:13:40.647Z,26.00
2022-08-17T09:16:16.841Z,25.90
2022-08-17T09:19:00.639Z,25.80
2022-08-17T09:21:35.934Z,25.80
2022-08-17T09:24:12.771Z,25.70
2022-08-17T09:26:49.861Z,25.70
2022-08-17T09:29:18.377Z,25.70
2022-08-17T09:31:55.075Z,25.70
2022-08-17T09:34:33.178Z,25.60
2022-08-17T09:37:15.935Z,25.60
2022-08-17T09:39:51.147Z,25.40
2022-08-17T09:42:25.874Z,25.10
2022-08-17T09:45:03.753Z,25.10
2022-08-17T09:47:36.856Z,24.90
2022-08-17T09:50:11.438Z,24.90
2022-08-17T09:52:39.645Z,24.70
2022-08-17T09:55:08.555Z,24.70
2022-08-17T09:57:52.225Z,24.70
2022-08-17T10:00:24.998Z,24.60
2022-08-17T10:03:19.862Z,24.90
2022-08-17T10:05:56.497Z,25.10
2022-08-17T10:08:33.919Z,25.20
2022-08-17T10:11:50.485Z,25.30
2022-08-17T10:14:37.735Z,25.20
2022-08-17T10:17:20.460Z,25.40
2022-08-17T10:19:54.243Z,25.70
2022-08-17T10:22:47.809Z,25.70
2022-08-17T10:25:54.106Z,25.70
2022-08-17T10:28:29.760Z,25.80
2022-08-17T10:31:33.173Z,26.20
2022-08-17T10:34:05.721Z,26.40
2022-08-17T10:36:48.035Z,26.50
2022-08-17T10:39:27.366Z,26.50
2022-08-17T10:41:59.127Z,26.70
2022-08-17T10:44:41.045Z,26.70
2022-08-17T10:47:14.527Z,26.90
2022-08-17T10:49:47.769Z,27.10
2022-08-17T10:52:49.296Z,27.20
2022-08-17T10:55:20.394Z,27.60
2022-08-17T10:57:50.245Z,27.70
2022-08-17T11:00:54.829Z,27.50
2022-08-17T11:03:26.096Z,27.20
2022-08-17T11:06:01.054Z,27.00
2022-08-17T11:09:18.627Z,27.30
2022-08-17T11:12:01.494Z,27.50
2022-08-17T11:14:51.389Z,27.40
2022-08-17T11:17:51.098Z,27.30
2022-08-17T11:20:41.419Z,27.40
2022-08-17T11:23:26.180Z,27.50
2022-08-17T11:25:56.270Z,27.60
2022-08-17T11:28:28.115Z,27.70
2022-08-17T11:30:59.034Z,27.70
2022-08-17T11:33:56.142Z,27.70
2022-08-17T11:36:38.696Z,27.50
2022-08-17T11:39:18.671Z,27.40
2022-08-17T11:41:56.182Z,27.30
2022-08-17T11:44:37.747Z,27.00
2022-08-17T11:47:41.850Z,26.80
2022-08-17T11:50:55.857Z,27.00
2022-08-17T11:54:21.488Z,27.00
2022-08-17T11:56:48.967Z,26.80
2022-08-17T11:59:53.345Z,26.70
2022-08-17T12:02:47.506Z,26.80
2022-08-17T12:05:32.939Z,26.40
2022-08-17T12:08:09.319Z,26.30
2022-08-17T12:10:50.549Z,26.40
2022-08-17T12:13:19.867Z,26.40
2022-08-17T12:15:51.210Z,26.40
2022-08-17T12:18:24.778Z,26.40
2022-08-17T12:21:08.702Z,26.50
2022-08-17T12:23:44.149Z,26.60
2022-08-17T12:26:21.943Z,26.60
2022-08-17T12:28:55.916Z,26.80
2022-08-17T12:31:28.453Z,27.10
2022-08-17T12:33:57.007Z,27.00
2022-08-17T12:36:28.212Z,27.20
2022-08-17T12:39:13.030Z,27.20
2022-08-17T12:41:46.984Z,27.10
2022-08-17T12:44:18.260Z,27.40
2022-08-17T12:46:50.536Z,27.10
2022-08-17T12:49:35.499Z,27.20
2022-08-17T12:52:11.965Z,27.20
2022-08-17T12:54:50.567Z,27.50
2022-08-17T12:57:23.469Z,27.50
2022-08-17T12:59:54.586Z,27.40
2022-08-17T13:02:40.187Z,27.40
2022-08-17T13:05:17.811Z,27.50
2022-08-17T13:07:47.620Z,27.90
2022-08-17T13:10:21.501Z,27.90
2022-08-17T13:12:52.460Z,28.40
2022-08-17T13:15:29.569Z,28.80
2022-08-17T13:18:01.768Z,28.90
2022-08-17T13:20:29.852Z,28.80
2022-08-17T13:22:59.948Z,29.30
2022-08-17T13:25:29.306Z,29.80
2022-08-17T13:27:59.105Z,29.60
2022-08-17T13:30:31.689Z,29.40
2022-08-17T13:33:04.667Z,28.90
2022-08-17T13:35:49.919Z,29.10
2022-08-17T13:38:36.551Z,29.20
2022-08-17T13:41:06.452Z,29.70
2022-08-17T13:43:50.500Z,29.60
2022-08-17T13:46:21.798Z,29.00
2022-08-17T13:49:00.086Z,29.40
2022-08-17T13:51:31.829Z,29.50
2022-08-17T13:54:19.241Z,30.10
2022-08-17T13:56:54.397Z,30.60
2022-08-17T13:59:54.767Z,30.90
2022-08-17T14:02:25.967Z,31.00
2022-08-17T14:04:56.891Z,30.80
2022-08-17T14:07:30.912Z,30.50
2022-08-17T14:10:01.088Z,30.20
2022-08-17T14:12:31.558Z,29.70
2022-08-17T14:15:01.260Z,29.50
2022-08-17T14:17:36.332Z,29.20
2022-08-17T14:20:09.517Z,29.00
2022-08-17T14:22:40.024Z,29.00
2022-08-17T14:25:10.642Z,28.90
2022-08-17T14:27:53.612Z,29.20
2022-08-17T14:30:25.796Z,29.20
2022-08-17T14:32:56.600Z,29.00
2022-08-17T14:35:28.069Z,28.80
2022-08-17T14:37:57.044Z,28.60
2022-08-17T14:40:26.244Z,28.50
2022-08-17T14:42:55.449Z,28.90
2022-08-17T14:45:29.720Z,28.60
2022-08-17T14:48:01.108Z,29.00
2022-08-17T14:50:29.127Z,29.20
2022-08-17T14:53:03.217Z,29.80
2022-08-17T14:55:32.414Z,30.20
2022-08-17T14:58:00.686Z,30.30
2022-08-17T15:00:30.047Z,30.60
2022-08-17T15:03:00.486Z,30.40
2022-08-17T15:05:31.393Z,30.30
2022-08-17T15:07:59.911Z,30.60
2022-08-17T15:10:29.171Z,30.40
2022-08-17T15:12:57.771Z,30.60
2022-08-17T15:15:25.889Z,30.40
2022-08-17T15:17:55.562Z,30.20
2022-08-17T15:20:27.530Z,30.00
2022-08-17T15:22:57.114Z,29.80
2022-08-17T15:25:27.473Z,29.30
2022-08-17T15:27:55.918Z,29.20
2022-08-17T15:30:24.651Z,29.10
2022-08-17T15:32:54.970Z,29.10
2022-08-17T15:35:28.722Z,29.40
2022-08-17T15:38:06.505Z,29.60
2022-08-17T15:40:42.115Z,29.70
2022-08-17T15:43:12.392Z,29.60
2022-08-17T15:45:40.818Z,29.50
2022-08-17T15:48:09.038Z,29.30
2022-08-17T15:50:38.833Z,29.10
2022-08-17T15:53:06.735Z,29.00
2022-08-17T15:55:36.700Z,29.10
2022-08-17T15:58:04.985Z,29.30
2022-08-17T16:00:43.514Z,29.50
2022-08-17T16:04:01.330Z,29.60
2022-08-17T16:06:10.995Z,29.40
2022-08-17T16:08:41.576Z,29.30
2022-08-17T16:11:11.009Z,29.20
2022-08-17T16:13:39.834Z,29.00
2022-08-17T16:16:08.691Z,29.10
2022-08-17T16:18:37.572Z,29.10
2022-08-17T16:21:22.072Z,29.10
2022-08-17T16:23:54.379Z,29.20
2022-08-17T16:26:23.075Z,28.90
2022-08-17T16:28:51.344Z,29.10
2022-08-17T16:31:19.382Z,28.90
2022-08-17T16:33:58.436Z,29.00
2022-08-17T16:36:37.335Z,28.90
2022-08-17T16:39:07.017Z,28.90
2022-08-17T16:41:45.030Z,28.80
2022-08-17T16:44:15.552Z,28.70
2022-08-17T16:46:45.898Z,28.50
2022-08-17T16:49:35.357Z,28.40
2022-08-17T16:52:03.349Z,28.60
2022-08-17T16:54:33.495Z,28.60
2022-08-17T16:57:03.138Z,28.50
2022-08-17T16:59:40.883Z,28.40
2022-08-17T17:02:14.004Z,28.30
2022-08-17T17:04:49.036Z,28.30
2022-08-17T17:07:34.965Z,28.20
2022-08-17T17:10:09.356Z,28.00
2022-08-17T17:13:03.311Z,27.90
2022-08-17T17:15:32.564Z,27.70
2022-08-17T17:18:07.174Z,27.50
2022-08-17T17:20:43.729Z,27.30
2022-08-17T17:23:29.181Z,27.20
2022-08-17T17:26:04.578Z,27.20
2022-08-17T17:28:44.213Z,27.20
2022-08-17T17:31:16.953Z,27.00
2022-08-17T17:33:49.208Z,27.00
2022-08-17T17:36:25.240Z,27.00
2022-08-17T17:38:55.225Z,27.10
2022-08-17T17:41:28.939Z,27.10
2022-08-17T17:44:02.921Z,27.10
2022-08-17T17:46:34.151Z,27.10
2022-08-17T17:49:02.370Z,27.00
2022-08-17T17:52:07.948Z,26.80
2022-08-17T17:54:52.911Z,26.50
2022-08-17T17:57:31.050Z,26.00
2022-08-17T18:00:09.693Z,25.80
2022-08-17T18:02:51.423Z,25.50
2022-08-17T18:05:38.987Z,25.30
2022-08-17T18:08:19.818Z,25.20
2022-08-17T18:11:04.821Z,25.00
2022-08-17T18:13:52.314Z,24.90
2022-08-17T18:16:20.708Z,24.90
2022-08-17T18:18:57.789Z,25.00
2022-08-17T18:21:30.200Z,24.90
2022-08-17T18:24:00.973Z,24.70
2022-08-17T18:26:39.265Z,24.70
2022-08-17T18:29:23.627Z,24.60
2022-08-17T18:32:20.609Z,24.50
2022-08-17T18:34:51.827Z,24.30
2022-08-17T18:37:39.318Z,24.20
2022-08-17T18:40:28.329Z,24.20
2022-08-17T18:43:24.081Z,24.10
2022-08-17T18:45:55.106Z,24.00
2022-08-17T18:48:33.117Z,24.00
2022-08-17T18:51:06.088Z,24.00
2022-08-17T18:53:40.730Z,24.00
2022-08-17T18:56:33.575Z,24.00
2022-08-17T18:59:20.704Z,24.00
2022-08-17T19:02:10.215Z,24.00
2022-08-17T19:04:55.759Z,23.90
2022-08-17T19:07:29.563Z,23.80
2022-08-17T19:10:07.152Z,23.60
2022-08-17T19:12:41.994Z,23.50
2022-08-17T19:15:13.269Z,23.30
2022-08-17T19:17:48.368Z,23.30
2022-08-17T19:20:20.857Z,23.30
2022-08-17T19:23:07.799Z,23.30
2022-08-17T19:25:41.307Z,23.40
2022-08-17T19:28:21.599Z,23.40
2022-08-17T19:30:51.034Z,23.40
2022-08-17T19:33:20.537Z,23.00
2022-08-17T19:36:00.038Z,22.80
2022-08-17T19:38:40.524Z,22.80
2022-08-17T19:41:15.722Z,22.70
2022-08-17T19:43:54.703Z,22.70
2022-08-17T19:46:29.407Z,22.60
2022-08-17T19:49:07.347Z,22.50
2022-08-17T19:51:40.914Z,22.50
2022-08-17T19:54:20.410Z,22.40
2022-08-17T19:57:01.700Z,22.40
2022-08-17T19:59:49.087Z,22.40
2022-08-17T20:02:29.511Z,22.40
2022-08-17T20:05:02.857Z,22.40
2022-08-17T20:07:47.311Z,22.40
2022-08-17T20:10:24.731Z,22.40
2022-08-17T20:12:54.570Z,22.30
2022-08-17T20:15:28.367Z,22.20
2022-08-17T20:18:00.915Z,22.30
2022-08-17T20:20:36.306Z,22.30
2022-08-17T20:23:13.705Z,22.30
2022-08-17T20:25:47.637Z,22.40
2022-08-17T20:28:24.851Z,22.10
2022-08-17T20:30:53.800Z,22.00
2022-08-17T20:33:28.108Z,21.80
2022-08-17T20:36:18.893Z,21.70
2022-08-17T20:38:50.334Z,21.60
2022-08-17T20:41:22.414Z,21.60
2022-08-17T20:44:02.924Z,21.60
2022-08-17T20:46:43.480Z,21.60
2022-08-17T20:49:21.896Z,21.60
2022-08-17T20:52:02.423Z,21.60
2022-08-17T20:54:51.092Z,21.60
2022-08-17T20:57:47.290Z,21.80
2022-08-17T21:00:43.351Z,21.70
2022-08-17T21:03:51.329Z,21.70
2022-08-17T21:06:27.101Z,21.60
2022-08-17T21:08:59.606Z,21.60
2022-08-17T21:12:04.330Z,21.50
2022-08-17T21:14:58.672Z,21.40
2022-08-17T21:17:39.270Z,21.30
2022-08-17T21:20:23.487Z,21.30
2022-08-17T21:23:03.696Z,21.30
2022-08-17T21:25:55.938Z,21.30
2022-08-17T21:28:33.766Z,21.30
2022-08-17T21:31:09.039Z,21.30
2022-08-17T21:33:38.994Z,21.30
2022-08-17T21:36:26.755Z,21.40
2022-08-17T21:39:03.986Z,21.40
2022-08-17T21:41:45.094Z,21.40
2022-08-17T21:44:21.668Z,21.40
2022-08-17T21:46:52.203Z,21.40
2022-08-17T21:49:26.303Z,21.40
2022-08-17T21:51:56.947Z,21.30
2022-08-17T21:54:34.652Z,21.10
2022-08-17T21:57:06.989Z,21.10
2022-08-17T21:59:38.448Z,21.10
2022-08-17T22:02:09.387Z,21.20
2022-08-17T22:04:39.239Z,21.20
2022-08-17T22:07:10.068Z,21.20
2022-08-17T22:09:44.157Z,21.20
2022-08-17T22:12:18.623Z,21.20
2022-08-17T22:14:57.106Z,21.10
2022-08-17T22:17:27.560Z,21.10
2022-08-17T22:19:59.325Z,21.10
2022-08-17T22:22:34.312Z,21.10
2022-08-17T22:25:06.748Z,21.10
2022-08-17T22:27:55.779Z,21.10
2022-08-17T22:30:32.188Z,21.20
2022-08-17T22:33:02.380Z,21.10
2022-08-17T22:35:42.914Z,21.20
2022-08-17T22:38:33.196Z,21.10
2022-08-17T22:41:31.961Z,21.20
2022-08-17T22:44:15.551Z,21.20
2022-08-17T22:47:01.851Z,21.20
2022-08-17T22:49:33.539Z,21.10
2022-08-17T22:52:04.849Z,21.10
2022-08-17T22:54:50.310Z,21.00
2022-08-17T22:57:51.904Z,20.90
2022-08-17T23:00:35.834Z,20.90
2022-08-17T23:03:14.951Z,20.70
2022-08-17T23:05:45.471Z,20.70
2022-08-17T23:08:14.073Z,20.60
2022-08-17T23:10:45.319Z,20.70
2022-08-17T23:13:13.395Z,20.70
2022-08-17T23:15:43.080Z,20.50
2022-08-17T23:18:11.434Z,20.40
2022-08-17T23:20:41.677Z,20.40
2022-08-17T23:23:10.980Z,20.30
2022-08-17T23:25:39.495Z,20.40
2022-08-17T23:28:08.378Z,20.40
2022-08-17T23:30:39.814Z,20.40
2022-08-17T23:33:16.423Z,20.40
2022-08-17T23:35:44.697Z,20.50
2022-08-17T23:38:14.333Z,20.50
2022-08-17T23:40:42.444Z,20.40
2022-08-17T23:43:24.655Z,20.50
2022-08-17T23:45:54.881Z,20.40
2022-08-17T23:48:28.440Z,20.30
2022-08-17T23:51:09.001Z,20.40
2022-08-17T23:53:40.209Z,20.40
2022-08-17T23:56:11.273Z,20.40
2022-08-17T23:58:40.433Z,20.40
